Time;durP1;ratioP1;P1;durP2;ratioP2;P2;SDS_P1;SDS_P2;PMS_P1;PMS_P2;Temp;Humidity;BMP_temperature;BMP_pressure;BME280_temperature;BME280_humidity;BME280_pressure;Samples;Min_cycle;Max_cycle;Signal;HPM_P1;HPM_P2
2022/12/27 00:01:21;;;;;;;4.13;2.70;;;5.00;99.90;;;;;;5069243;28;21058;-50
2022/12/27 00:03:49;;;;;;;5.30;3.10;;;5.20;99.90;;;;;;5069210;28;20931;-50
2022/12/27 00:06:18;;;;;;;3.80;2.97;;;5.10;99.90;;;;;;5069384;28;20481;-50
2022/12/27 00:08:46;;;;;;;2.50;2.10;;;5.10;99.90;;;;;;5069489;28;20521;-50
2022/12/27 00:11:16;;;;;;;4.17;2.20;;;5.20;99.90;;;;;;5069222;28;20545;-51
2022/12/27 00:13:43;;;;;;;2.57;2.37;;;5.30;99.90;;;;;;5069060;28;20467;-50
2022/12/27 00:16:12;;;;;;;3.60;2.87;;;5.30;99.90;;;;;;5070528;28;20465;-50
2022/12/27 00:18:40;;;;;;;4.20;3.27;;;5.30;99.90;;;;;;5070970;28;21005;-50
2022/12/27 00:21:08;;;;;;;3.53;3.07;;;5.40;99.90;;;;;;5070792;28;20495;-52
2022/12/27 00:23:37;;;;;;;2.70;2.43;;;5.40;99.90;;;;;;5070675;28;20512;-51
2022/12/27 00:26:05;;;;;;;5.27;3.40;;;5.30;99.90;;;;;;5070696;28;20475;-51
2022/12/27 00:28:35;;;;;;;4.57;3.70;;;5.20;99.90;;;;;;5070825;28;20483;-50
2022/12/27 00:31:02;;;;;;;5.17;3.07;;;5.30;99.90;;;;;;5070771;28;20495;-50
2022/12/27 00:33:31;;;;;;;6.53;3.67;;;5.20;99.90;;;;;;5070543;28;20933;-50
2022/12/27 00:35:59;;;;;;;4.00;3.60;;;5.20;99.90;;;;;;5070904;28;20529;-50
2022/12/27 00:38:26;;;;;;;3.50;3.20;;;5.10;99.90;;;;;;5070037;28;20490;-51
2022/12/27 00:40:53;;;;;;;3.23;2.93;;;5.20;99.90;;;;;;5069921;28;20511;-50
2022/12/27 00:43:21;;;;;;;4.03;2.70;;;5.20;99.90;;;;;;5068941;28;20479;-51
2022/12/27 00:45:49;;;;;;;3.40;2.80;;;5.10;99.90;;;;;;5069470;28;20470;-50
2022/12/27 00:48:16;;;;;;;3.50;3.20;;;5.10;99.90;;;;;;5072731;28;20529;-51
2022/12/27 00:50:43;;;;;;;3.20;2.80;;;4.90;99.90;;;;;;5072560;28;20489;-52
2022/12/27 00:53:11;;;;;;;3.70;2.80;;;4.80;99.90;;;;;;5072735;28;20769;-51
2022/12/27 00:55:39;;;;;;;4.30;2.90;;;4.80;99.90;;;;;;5073082;28;20468;-50
2022/12/27 00:58:06;;;;;;;6.90;3.00;;;4.70;99.90;;;;;;5074677;28;20537;-48
2022/12/27 01:00:33;;;;;;;4.93;3.23;;;4.70;99.90;;;;;;5073737;28;20554;-50
2022/12/27 01:03:01;;;;;;;3.37;3.00;;;4.70;99.90;;;;;;5073814;28;21023;-52
2022/12/27 01:05:28;;;;;;;3.90;3.43;;;4.90;99.90;;;;;;5072642;28;20538;-52
2022/12/27 01:07:55;;;;;;;3.83;3.10;;;4.90;99.90;;;;;;5072757;28;20474;-50
2022/12/27 01:10:22;;;;;;;3.33;3.03;;;4.90;99.90;;;;;;5072336;28;20496;-52
2022/12/27 01:12:49;;;;;;;3.50;2.90;;;5.00;99.90;;;;;;5072164;28;20540;-53
2022/12/27 01:15:16;;;;;;;4.53;3.20;;;5.00;99.90;;;;;;5072074;28;20477;-50
2022/12/27 01:17:42;;;;;;;6.20;3.43;;;4.90;99.90;;;;;;5072307;28;20530;-51
2022/12/27 01:20:11;;;;;;;3.57;3.27;;;4.70;99.90;;;;;;5073288;28;20534;-50
2022/12/27 01:22:38;;;;;;;3.37;3.07;;;4.80;99.90;;;;;;5073556;28;20569;-50
2022/12/27 01:25:06;;;;;;;4.30;3.33;;;4.90;99.90;;;;;;5072526;28;20529;-52
2022/12/27 01:27:32;;;;;;;5.40;3.63;;;4.90;99.90;;;;;;5071844;28;21031;-51
2022/12/27 01:29:59;;;;;;;4.47;3.83;;;5.00;99.90;;;;;;5072332;28;20866;-51
2022/12/27 01:32:26;;;;;;;6.90;3.57;;;4.90;99.90;;;;;;5072395;28;20533;-51
2022/12/27 01:34:53;;;;;;;4.43;3.63;;;4.90;99.90;;;;;;5072291;28;20483;-51
2022/12/27 01:37:21;;;;;;;3.83;3.17;;;5.00;99.90;;;;;;5071977;28;20530;-50
2022/12/27 01:39:48;;;;;;;3.23;2.90;;;5.00;99.90;;;;;;5071855;28;20516;-50
2022/12/27 01:45:02;;;;;;;2.90;2.70;;;4.90;99.90;;;;;;5073053;28;20426;-50
2022/12/27 01:47:47;;;;;;;3.53;3.23;;;4.80;99.90;;;;;;5072953;28;20451;-50
2022/12/27 01:50:21;;;;;;;3.10;2.60;;;4.80;99.90;;;;;;5071797;28;20545;-50
2022/12/27 01:52:56;;;;;;;5.10;3.20;;;4.90;99.90;;;;;;5072061;28;20991;-50
2022/12/27 01:55:29;;;;;;;43.10;24.10;;;4.90;99.90;;;;;;5072030;28;20959;-50
2022/12/27 01:58:00;;;;;;;6.57;5.93;;;5.00;99.90;;;;;;5071269;28;20526;-50
2022/12/27 02:00:27;;;;;;;3.80;3.50;;;5.00;99.90;;;;;;5071695;28;20489;-51
2022/12/27 02:02:54;;;;;;;3.17;2.87;;;5.00;99.90;;;;;;5072409;28;20918;-53
2022/12/27 02:05:24;;;;;;;3.50;2.90;;;5.10;99.90;;;;;;5072762;28;20484;-50
2022/12/27 02:08:02;;;;;;;4.97;3.30;;;5.20;99.90;;;;;;5072965;28;20865;-50
2022/12/27 02:10:29;;;;;;;4.60;3.70;;;5.20;99.90;;;;;;5072819;28;20537;-50
2022/12/27 02:12:58;;;;;;;6.03;3.40;;;5.10;99.90;;;;;;5072009;28;20479;-50
2022/12/27 02:15:24;;;;;;;4.47;4.07;;;5.00;99.90;;;;;;5072902;28;20524;-50
2022/12/27 02:17:51;;;;;;;4.20;3.80;;;4.90;99.90;;;;;;5072780;28;20479;-50
2022/12/27 02:20:21;;;;;;;3.60;3.30;;;4.90;99.90;;;;;;5072315;28;20445;-51
2022/12/27 02:26:47;;;;;;;5.50;3.60;;;4.60;99.90;;;;;;5072465;28;20573;-50
2022/12/27 02:29:30;;;;;;;4.50;3.77;;;4.60;99.90;;;;;;5070765;28;20481;-51
2022/12/27 02:32:03;;;;;;;3.30;3.00;;;4.60;99.90;;;;;;5072277;28;20490;-51
2022/12/27 02:34:35;;;;;;;4.37;3.40;;;4.60;99.90;;;;;;5071936;28;20940;-50
2022/12/27 02:37:07;;;;;;;4.07;3.37;;;4.60;99.90;;;;;;5072369;28;20482;-52
2022/12/27 02:39:38;;;;;;;3.47;3.17;;;4.60;99.90;;;;;;5072526;28;20523;-50
2022/12/27 02:53:28;;;;;;;3.17;2.87;;;4.90;99.90;;;;;;5070250;28;20486;-51
2022/12/27 02:59:02;;;;;;;3.30;2.93;;;4.70;99.90;;;;;;5070494;28;20419;-53
2022/12/27 03:04:44;;;;;;;3.87;3.50;;;4.50;99.90;;;;;;5069663;28;20639;-51
2022/12/27 03:07:25;;;;;;;3.93;3.60;;;4.50;99.90;;;;;;5070506;28;20534;-51
2022/12/27 03:16:11;;;;;;;3.90;2.80;;;4.50;99.90;;;;;;5070741;28;20965;-51
2022/12/27 03:18:54;;;;;;;2.50;2.30;;;4.60;99.90;;;;;;5050101;28;20530;-51
2022/12/27 03:27:07;;;;;;;4.70;3.60;;;3.80;99.90;;;;;;5053360;28;20427;-53
2022/12/27 03:35:12;;;;;;;4.90;4.50;;;3.60;99.90;;;;;;5071181;28;20460;-50
2022/12/27 03:40:37;;;;;;;4.63;4.23;;;4.10;99.90;;;;;;5071335;28;20612;-50
2022/12/27 03:43:09;;;;;;;6.43;5.10;;;4.20;99.90;;;;;;5071329;28;20561;-50
2022/12/27 03:48:48;;;;;;;4.53;4.13;;;4.00;99.90;;;;;;5071143;28;20480;-51
2022/12/27 03:51:20;;;;;;;4.30;3.90;;;4.10;99.90;;;;;;5071516;28;20541;-50
2022/12/27 03:53:51;;;;;;;5.63;4.33;;;4.30;99.90;;;;;;5070692;28;20469;-51
2022/12/27 03:56:18;;;;;;;5.77;4.50;;;4.40;99.90;;;;;;5071086;28;20477;-50
2022/12/27 03:58:45;;;;;;;4.97;4.40;;;4.30;99.90;;;;;;5070861;28;21008;-50
2022/12/27 04:01:12;;;;;;;5.83;4.80;;;4.10;99.90;;;;;;5070606;28;20558;-50
2022/12/27 04:03:38;;;;;;;5.23;4.80;;;4.10;99.90;;;;;;5069389;28;20562;-53
2022/12/27 04:06:06;;;;;;;4.80;4.40;;;4.30;99.90;;;;;;5069516;28;20481;-48
2022/12/27 04:35:57;;;;;;;4.90;4.40;;;4.50;99.90;;;;;;5073477;28;20414;-50
2022/12/27 04:38:24;;;;;;;5.37;4.80;;;4.40;99.90;;;;;;5073090;28;20533;-51
2022/12/27 04:54:58;;;;;;;5.43;4.80;;;4.60;99.90;;;;;;5074066;28;20420;-53
2022/12/27 04:57:27;;;;;;;5.03;4.53;;;4.50;99.90;;;;;;5073836;28;20885;-51
2022/12/27 05:02:39;;;;;;;4.70;4.30;;;4.50;99.90;;;;;;5073912;28;20441;-50
2022/12/27 05:05:07;;;;;;;5.30;4.80;;;4.60;99.90;;;;;;5074112;28;20476;-50
2022/12/27 05:15:49;;;;;;;5.53;4.80;;;4.30;99.90;;;;;;5072184;28;20962;-50
2022/12/27 05:18:16;;;;;;;7.27;6.47;;;5.40;99.90;;;;;;5072808;28;20444;-50
2022/12/27 05:20:43;;;;;;;6.67;5.97;;;5.50;99.90;;;;;;5072760;28;20547;-50
2022/12/27 05:25:54;;;;;;;1.80;1.70;;;4.60;99.90;;;;;;5073814;28;20441;-53
2022/12/27 05:28:22;;;;;;;3.50;3.20;;;5.30;99.90;;;;;;5072653;28;20955;-50
2022/12/27 05:30:49;;;;;;;4.47;4.07;;;5.10;99.90;;;;;;5071622;28;21026;-50
2022/12/27 05:33:16;;;;;;;2.23;2.03;;;5.00;99.90;;;;;;5069883;28;20437;-50
2022/12/27 05:35:43;;;;;;;1.63;1.10;;;5.10;99.90;;;;;;5063358;28;20529;-50
2022/12/27 05:38:10;;;;;;;1.00;0.60;;;5.50;99.90;;;;;;5086039;28;20524;-50
2022/12/27 05:40:37;;;;;;;1.10;0.50;;;5.50;99.90;;;;;;5070252;28;20914;-51
2022/12/27 05:43:04;;;;;;;1.47;1.13;;;5.60;99.90;;;;;;5070547;28;20476;-50
2022/12/27 05:45:33;;;;;;;1.73;1.50;;;5.50;99.90;;;;;;5072505;28;20545;-51
2022/12/27 05:48:00;;;;;;;2.90;2.37;;;5.40;99.90;;;;;;5074933;28;20453;-50
2022/12/27 05:50:27;;;;;;;4.40;3.30;;;5.40;99.90;;;;;;5073053;28;20565;-50
2022/12/27 05:52:55;;;;;;;2.70;2.40;;;5.30;99.90;;;;;;5072279;28;21002;-49
2022/12/27 05:55:22;;;;;;;1.90;1.43;;;5.40;99.90;;;;;;5073229;28;20484;-50
2022/12/27 05:57:49;;;;;;;1.77;1.27;;;5.40;99.90;;;;;;5070821;28;20475;-50
2022/12/27 06:00:16;;;;;;;2.20;1.90;;;5.40;99.90;;;;;;5071581;28;20527;-52
2022/12/27 06:02:45;;;;;;;1.10;0.80;;;5.40;99.90;;;;;;5076176;28;20521;-50
2022/12/27 06:05:11;;;;;;;0.80;0.50;;;5.50;99.90;;;;;;5074144;28;20567;-49
2022/12/27 06:07:39;;;;;;;1.10;0.90;;;5.50;99.90;;;;;;5071630;28;20530;-51
2022/12/27 06:10:07;;;;;;;2.83;1.93;;;5.60;99.90;;;;;;5070382;28;20478;-49
2022/12/27 06:12:35;;;;;;;0.90;0.50;;;5.50;99.90;;;;;;5072720;28;21155;-51
2022/12/27 06:15:02;;;;;;;0.80;0.50;;;5.60;99.90;;;;;;5071585;28;20521;-49
2022/12/27 06:17:29;;;;;;;0.90;0.40;;;5.70;99.90;;;;;;5070580;28;20445;-50
2022/12/27 06:19:57;;;;;;;0.80;0.47;;;5.70;99.90;;;;;;5069457;28;20540;-49
2022/12/27 06:22:24;;;;;;;2.17;1.40;;;5.70;99.90;;;;;;5071103;28;20517;-49
2022/12/27 06:24:51;;;;;;;2.07;1.30;;;5.50;99.90;;;;;;5068335;28;20545;-51
2022/12/27 06:27:18;;;;;;;1.07;0.83;;;5.30;99.90;;;;;;5069742;28;21029;-50
2022/12/27 06:29:45;;;;;;;1.50;1.23;;;5.20;99.90;;;;;;5070204;28;20488;-50
2022/12/27 06:32:12;;;;;;;1.47;1.00;;;5.20;99.90;;;;;;5071215;28;20545;-50
2022/12/27 06:34:39;;;;;;;1.50;1.00;;;5.30;99.90;;;;;;5071797;28;20823;-50
2022/12/27 06:37:07;;;;;;;5.43;4.30;;;5.30;99.90;;;;;;5070986;28;20529;-49
2022/12/27 06:39:34;;;;;;;1.47;1.37;;;5.10;99.90;;;;;;5072210;28;20529;-49
2022/12/27 06:42:01;;;;;;;1.57;1.03;;;4.90;99.90;;;;;;5072025;28;20511;-50
2022/12/27 06:44:27;;;;;;;2.20;1.30;;;4.90;99.90;;;;;;5071749;28;20925;-49
2022/12/27 06:46:55;;;;;;;5.10;3.60;;;4.80;99.90;;;;;;5072530;28;20487;-49
2022/12/27 06:49:22;;;;;;;3.47;2.60;;;4.70;99.90;;;;;;5072455;28;20504;-50
2022/12/27 06:51:49;;;;;;;2.17;1.40;;;4.50;99.90;;;;;;5071768;28;20516;-50
2022/12/27 06:54:17;;;;;;;1.47;1.37;;;4.60;99.90;;;;;;5071614;28;20442;-50
2022/12/27 06:56:44;;;;;;;1.27;1.10;;;4.50;99.90;;;;;;5072038;28;20481;-51
2022/12/27 06:59:11;;;;;;;2.40;2.20;;;4.60;99.90;;;;;;5071493;28;20589;-50
2022/12/27 07:01:38;;;;;;;1.87;1.70;;;4.60;99.90;;;;;;5070388;28;20557;-50
2022/12/27 07:04:05;;;;;;;2.17;1.70;;;4.50;99.90;;;;;;5070108;28;20917;-50
2022/12/27 07:06:35;;;;;;;1.87;1.40;;;4.60;99.90;;;;;;5070531;28;20867;-50
2022/12/27 07:09:02;;;;;;;2.03;1.83;;;4.50;99.90;;;;;;5071429;28;20538;-50
2022/12/27 07:11:32;;;;;;;1.60;1.30;;;4.70;99.90;;;;;;5071514;28;20470;-50
2022/12/27 07:13:59;;;;;;;1.80;1.60;;;4.70;99.90;;;;;;5071581;28;20470;-49
2022/12/27 07:16:28;;;;;;;2.17;1.50;;;4.60;99.90;;;;;;5072021;28;20536;-50
2022/12/27 07:18:56;;;;;;;1.63;1.53;;;4.60;99.90;;;;;;5071580;28;21013;-50
2022/12/27 07:21:25;;;;;;;1.97;1.37;;;4.50;99.90;;;;;;5070533;28;20493;-51
2022/12/27 07:23:53;;;;;;;2.40;1.60;;;4.60;99.90;;;;;;5069724;28;21062;-50
2022/12/27 07:26:21;;;;;;;1.90;1.73;;;4.60;99.90;;;;;;5070237;28;20470;-50
2022/12/27 07:28:52;;;;;;;3.00;2.00;;;4.40;99.90;;;;;;5070179;28;20480;-50
2022/12/27 07:31:21;;;;;;;2.73;1.90;;;4.50;99.90;;;;;;5070144;28;20856;-50
2022/12/27 07:33:48;;;;;;;2.60;2.37;;;4.50;99.90;;;;;;5069923;28;20454;-50
2022/12/27 07:36:17;;;;;;;2.20;2.00;;;4.70;99.90;;;;;;5071537;28;20481;-49
2022/12/27 07:38:45;;;;;;;3.30;3.00;;;4.80;99.90;;;;;;5071377;28;20535;-53
2022/12/27 07:41:13;;;;;;;2.77;1.40;;;4.80;99.90;;;;;;5070955;28;20474;-52
2022/12/27 07:43:42;;;;;;;2.40;1.80;;;4.80;99.90;;;;;;5070807;28;20482;-52
2022/12/27 07:46:12;;;;;;;3.13;2.50;;;4.80;99.90;;;;;;5071040;28;20444;-50
2022/12/27 07:48:40;;;;;;;3.70;2.60;;;4.80;99.90;;;;;;5071466;28;20478;-50
2022/12/27 07:51:07;;;;;;;2.40;2.20;;;4.90;99.90;;;;;;5070874;28;20557;-53
2022/12/27 07:53:35;;;;;;;2.80;1.70;;;4.80;99.90;;;;;;5071168;28;20530;-50
2022/12/27 07:56:06;;;;;;;4.63;2.50;;;4.90;99.90;;;;;;5070553;28;20439;-50
2022/12/27 07:58:36;;;;;;;4.17;2.07;;;4.90;99.90;;;;;;5070984;28;20443;-50
2022/12/27 08:01:03;;;;;;;2.00;1.80;;;4.90;99.90;;;;;;5071770;28;20561;-50
2022/12/27 08:03:32;;;;;;;2.63;1.80;;;4.80;99.90;;;;;;5071251;28;20533;-50
2022/12/27 08:05:59;;;;;;;3.00;2.03;;;4.70;99.90;;;;;;5070810;28;20514;-51
2022/12/27 08:08:31;;;;;;;3.17;2.20;;;4.70;99.90;;;;;;5070234;28;20533;-51
2022/12/27 08:10:58;;;;;;;2.13;1.90;;;4.60;99.90;;;;;;5069616;28;20491;-50
2022/12/27 08:13:25;;;;;;;5.30;2.20;;;4.60;99.90;;;;;;5069579;28;20822;-50
2022/12/27 08:15:53;;;;;;;3.07;2.77;;;4.70;99.90;;;;;;5069311;28;20528;-52
2022/12/27 08:18:20;;;;;;;2.80;2.60;;;4.70;99.90;;;;;;5069437;28;20947;-50
2022/12/27 08:20:49;;;;;;;2.97;2.20;;;4.70;99.90;;;;;;5069316;28;20498;-50
2022/12/27 08:23:16;;;;;;;2.53;2.33;;;4.70;99.90;;;;;;5070228;28;20455;-50
2022/12/27 08:25:44;;;;;;;2.33;1.93;;;4.70;99.90;;;;;;5070794;28;20516;-51
2022/12/27 08:28:12;;;;;;;3.13;1.97;;;4.70;99.90;;;;;;5070975;28;20474;-50
2022/12/27 08:30:40;;;;;;;2.00;1.73;;;4.80;99.90;;;;;;5070831;28;20500;-50
2022/12/27 08:33:07;;;;;;;2.20;1.83;;;4.80;99.90;;;;;;5070700;28;20537;-50
2022/12/27 08:35:39;;;;;;;2.00;1.80;;;4.90;99.90;;;;;;5070494;28;20485;-51
2022/12/27 08:38:07;;;;;;;3.43;2.70;;;4.80;99.90;;;;;;5071041;28;20521;-52
2022/12/27 08:40:41;;;;;;;3.40;2.60;;;4.80;99.90;;;;;;5077666;28;20491;-48
2022/12/27 08:43:08;;;;;;;5.10;2.33;;;4.70;99.90;;;;;;5076354;28;20533;-49
2022/12/27 08:45:35;;;;;;;3.93;3.47;;;4.70;99.90;;;;;;5080003;28;20508;-51
2022/12/27 08:48:03;;;;;;;3.67;2.50;;;4.70;99.90;;;;;;5080405;28;20470;-50
2022/12/27 08:50:30;;;;;;;3.00;2.00;;;4.60;99.90;;;;;;5078909;28;20485;-49
2022/12/27 08:52:59;;;;;;;3.60;2.50;;;4.60;99.90;;;;;;5076711;28;20524;-50
2022/12/27 08:55:28;;;;;;;2.67;2.47;;;4.60;99.90;;;;;;5080123;28;20524;-50
2022/12/27 08:57:59;;;;;;;4.17;2.37;;;4.60;99.90;;;;;;5081243;28;20995;-51
2022/12/27 09:00:27;;;;;;;2.80;2.60;;;4.60;99.90;;;;;;5079549;28;20490;-50
2022/12/27 09:02:54;;;;;;;2.63;2.43;;;4.60;99.90;;;;;;5077799;28;20528;-50
2022/12/27 09:05:22;;;;;;;3.03;2.43;;;4.60;99.90;;;;;;5079402;28;20557;-52
2022/12/27 09:07:49;;;;;;;2.90;2.60;;;4.70;99.90;;;;;;5081367;28;20471;-49
2022/12/27 09:10:17;;;;;;;3.03;2.73;;;4.70;99.90;;;;;;5083127;28;20892;-50
2022/12/27 09:12:46;;;;;;;2.90;2.27;;;4.70;99.90;;;;;;5082409;28;20502;-50
2022/12/27 09:15:13;;;;;;;3.80;3.30;;;4.80;99.90;;;;;;5081667;28;20437;-50
2022/12/27 09:17:40;;;;;;;3.93;2.87;;;4.80;99.90;;;;;;5084160;28;21009;-50
2022/12/27 09:20:10;;;;;;;3.03;2.73;;;4.90;99.90;;;;;;5084244;28;20521;-50
2022/12/27 09:22:37;;;;;;;2.50;2.30;;;5.00;99.90;;;;;;5073905;28;21071;-50
2022/12/27 09:25:05;;;;;;;3.13;2.23;;;5.10;99.90;;;;;;5073268;28;20577;-52
2022/12/27 09:27:34;;;;;;;3.07;2.73;;;5.20;99.90;;;;;;5073984;28;20523;-50
2022/12/27 09:30:03;;;;;;;3.57;3.27;;;5.20;99.90;;;;;;5073455;28;20530;-52
2022/12/27 09:32:30;;;;;;;3.40;2.70;;;5.00;99.90;;;;;;5073849;28;20542;-50
2022/12/27 09:34:57;;;;;;;3.30;3.00;;;5.00;99.90;;;;;;5073698;28;20532;-52
2022/12/27 09:37:24;;;;;;;3.07;2.80;;;5.00;99.90;;;;;;5073500;28;20528;-50
2022/12/27 09:39:51;;;;;;;4.70;3.20;;;4.90;99.90;;;;;;5072081;28;20948;-51
2022/12/27 09:42:29;;;;;;;5.10;3.70;;;4.90;99.90;;;;;;5071740;28;20477;-51
2022/12/27 09:45:00;;;;;;;4.57;3.97;;;4.90;99.90;;;;;;5071610;28;20592;-51
2022/12/27 09:47:33;;;;;;;3.60;3.27;;;5.00;99.90;;;;;;5071758;28;20485;-50
2022/12/27 09:50:05;;;;;;;3.47;3.03;;;5.10;99.90;;;;;;5071778;28;20451;-51
2022/12/27 09:52:36;;;;;;;3.50;2.73;;;5.10;99.90;;;;;;5071358;28;20446;-50
2022/12/27 09:55:12;;;;;;;3.13;2.83;;;5.10;99.90;;;;;;5070201;28;20533;-50
2022/12/27 09:57:42;;;;;;;3.50;3.20;;;5.10;99.90;;;;;;5068495;28;20529;-51
2022/12/27 10:00:16;;;;;;;4.33;3.37;;;5.20;99.90;;;;;;5070894;28;20472;-53
2022/12/27 10:02:45;;;;;;;3.03;2.83;;;5.30;99.90;;;;;;5070918;28;20445;-52
2022/12/27 10:05:20;;;;;;;3.40;2.23;;;5.20;99.90;;;;;;5071797;28;20585;-50
2022/12/27 10:08:00;;;;;;;2.80;2.60;;;5.30;99.90;;;;;;5071448;28;21002;-51
2022/12/27 10:10:40;;;;;;;3.80;3.13;;;5.40;99.90;;;;;;5071082;28;20493;-50
2022/12/27 10:13:20;;;;;;;4.27;3.70;;;5.50;99.90;;;;;;5069258;28;20523;-50
2022/12/27 10:15:52;;;;;;;3.37;3.03;;;5.50;99.90;;;;;;5067500;28;20448;-51
2022/12/27 10:18:31;;;;;;;6.00;4.60;;;5.50;99.90;;;;;;5061471;28;20494;-50
2022/12/27 10:21:08;;;;;;;4.20;3.87;;;5.60;99.90;;;;;;5069366;28;20506;-51
2022/12/27 10:23:38;;;;;;;8.23;6.50;;;5.50;99.90;;;;;;5069651;28;20476;-51
2022/12/27 10:26:11;;;;;;;11.30;8.97;;;5.50;99.90;;;;;;5068251;28;20583;-51
2022/12/27 10:28:41;;;;;;;3.83;3.40;;;5.50;99.90;;;;;;5068276;28;20531;-51
2022/12/27 10:31:14;;;;;;;3.13;2.87;;;5.50;99.90;;;;;;5067717;28;20523;-50
2022/12/27 10:33:43;;;;;;;6.00;4.30;;;5.40;99.90;;;;;;5064655;28;20932;-49
2022/12/27 10:36:14;;;;;;;3.80;3.50;;;5.40;99.90;;;;;;5067639;28;20436;-52
2022/12/27 10:38:41;;;;;;;4.00;3.20;;;5.40;99.90;;;;;;5064994;28;20538;-52
2022/12/27 10:41:23;;;;;;;6.10;3.80;;;5.20;99.90;;;;;;5068104;28;20503;-51
2022/12/27 10:43:52;;;;;;;3.10;2.33;;;5.10;99.90;;;;;;5066414;28;20532;-49
2022/12/27 10:46:22;;;;;;;7.90;2.83;;;5.20;99.90;;;;;;5069075;28;20570;-50
2022/12/27 10:48:58;;;;;;;2.67;2.00;;;5.20;99.90;;;;;;5068762;28;21023;-49
2022/12/27 10:51:27;;;;;;;2.87;2.57;;;5.30;99.90;;;;;;5066174;28;20514;-49
2022/12/27 10:54:01;;;;;;;2.20;2.00;;;5.40;99.90;;;;;;5067893;28;20519;-51
2022/12/27 10:56:30;;;;;;;2.77;2.20;;;5.50;99.90;;;;;;5068669;28;20508;-49
2022/12/27 10:59:12;;;;;;;2.30;1.93;;;5.40;99.90;;;;;;5068759;28;20874;-50
2022/12/27 11:01:39;;;;;;;3.27;2.00;;;5.40;99.90;;;;;;5068577;28;20913;-49
2022/12/27 11:04:13;;;;;;;2.33;1.80;;;5.30;99.90;;;;;;5068322;28;20443;-49
2022/12/27 11:06:42;;;;;;;2.90;2.13;;;5.20;99.90;;;;;;5064757;28;20473;-49
2022/12/27 11:09:27;;;;;;;2.13;1.93;;;5.30;99.90;;;;;;5065513;28;20496;-50
2022/12/27 11:12:12;;;;;;;3.90;1.90;;;5.30;99.90;;;;;;5065661;28;20549;-50
2022/12/27 11:14:40;;;;;;;2.73;1.80;;;5.40;99.90;;;;;;5063670;28;20443;-50
2022/12/27 11:17:13;;;;;;;2.20;1.40;;;5.50;99.90;;;;;;5066867;28;20562;-49
2022/12/27 11:19:46;;;;;;;3.40;2.30;;;5.40;99.90;;;;;;5064401;28;20497;-50
2022/12/27 11:22:14;;;;;;;1.97;1.67;;;5.40;99.90;;;;;;5068090;28;20498;-52
2022/12/27 11:24:46;;;;;;;2.80;1.93;;;5.40;99.90;;;;;;5068096;28;20536;-50
2022/12/27 11:27:22;;;;;;;4.90;2.37;;;5.50;99.90;;;;;;5067600;28;20443;-50
2022/12/27 11:29:50;;;;;;;2.33;2.10;;;5.50;99.90;;;;;;5067010;28;20500;-50
2022/12/27 11:32:18;;;;;;;2.20;2.00;;;5.40;99.90;;;;;;5066202;28;20889;-51
2022/12/27 11:34:47;;;;;;;2.63;2.37;;;5.50;99.90;;;;;;5066666;28;20481;-49
2022/12/27 11:37:18;;;;;;;3.10;2.70;;;5.60;99.90;;;;;;5066582;28;20460;-51
2022/12/27 11:39:48;;;;;;;2.17;1.93;;;5.50;99.90;;;;;;5066258;28;20898;-49
2022/12/27 11:42:25;;;;;;;2.10;1.90;;;5.50;99.90;;;;;;5066758;28;20475;-49
2022/12/27 11:45:04;;;;;;;2.20;2.00;;;5.40;99.90;;;;;;5070425;28;20520;-50
2022/12/27 11:47:38;;;;;;;2.97;2.53;;;5.40;99.90;;;;;;5071275;28;20468;-51
2022/12/27 11:50:32;;;;;;;2.30;2.07;;;5.40;99.90;;;;;;5066958;28;21173;-51
2022/12/27 11:53:25;;;;;;;2.40;1.97;;;5.50;99.90;;;;;;5063787;28;20961;-50
2022/12/27 11:56:12;;;;;;;2.90;1.70;;;5.60;99.90;;;;;;5059957;28;20538;-49
2022/12/27 11:59:14;;;;;;;2.83;2.07;;;5.70;99.90;;;;;;5065568;28;20911;-50
2022/12/27 12:02:21;;;;;;;2.23;2.03;;;5.80;99.90;;;;;;5067499;28;20465;-49
2022/12/27 12:05:22;;;;;;;2.80;2.10;;;5.90;99.90;;;;;;5047414;28;20480;-49
2022/12/27 12:08:04;;;;;;;3.30;1.93;;;5.90;99.90;;;;;;5050295;28;20913;-53
2022/12/27 12:10:43;;;;;;;2.20;1.87;;;5.70;99.90;;;;;;5064879;28;21017;-50
2022/12/27 12:13:27;;;;;;;3.07;2.20;;;5.80;99.90;;;;;;5066471;28;20450;-51
2022/12/27 12:16:33;;;;;;;2.43;2.17;;;5.80;99.90;;;;;;5074268;28;20825;-50
2022/12/27 12:19:12;;;;;;;2.10;1.60;;;5.90;99.90;;;;;;5067488;28;20475;-49
2022/12/27 12:21:47;;;;;;;2.20;1.80;;;5.90;99.90;;;;;;5067860;28;20985;-50
2022/12/27 12:24:41;;;;;;;1.70;1.47;;;5.90;99.90;;;;;;5067870;28;20443;-52
2022/12/27 12:27:31;;;;;;;2.10;1.67;;;6.00;99.90;;;;;;5066745;28;20476;-50
2022/12/27 12:30:36;;;;;;;1.30;1.20;;;6.10;99.90;;;;;;5063082;28;20437;-49
2022/12/27 12:33:46;;;;;;;2.20;1.60;;;6.30;99.90;;;;;;5035674;28;20451;-51
2022/12/27 12:36:35;;;;;;;2.03;1.50;;;6.40;99.90;;;;;;5046230;28;20519;-50
2022/12/27 12:39:09;;;;;;;1.97;1.77;;;6.40;99.90;;;;;;5044995;28;20477;-51
2022/12/27 12:41:59;;;;;;;1.93;1.83;;;6.50;99.90;;;;;;5045701;28;20504;-51
2022/12/27 12:44:53;;;;;;;2.07;1.70;;;6.50;99.90;;;;;;5063563;28;20483;-50
2022/12/27 12:47:45;;;;;;;1.87;1.77;;;6.60;99.90;;;;;;5048418;28;20483;-49
2022/12/27 12:50:26;;;;;;;2.93;1.80;;;6.70;99.90;;;;;;5072611;28;20538;-50
2022/12/27 12:53:11;;;;;;;2.40;1.60;;;6.50;99.90;;;;;;5090187;28;20617;-51
2022/12/27 12:55:58;;;;;;;1.70;1.50;;;6.40;99.90;;;;;;5084705;28;20555;-49
2022/12/27 12:58:45;;;;;;;2.80;1.53;;;6.50;99.90;;;;;;5067776;28;20605;-49
2022/12/27 13:01:29;;;;;;;2.73;1.67;;;6.60;99.90;;;;;;5068206;28;20974;-50
2022/12/27 13:04:10;;;;;;;2.60;1.73;;;6.60;99.90;;;;;;5077216;28;20983;-49
2022/12/27 13:06:52;;;;;;;2.37;1.57;;;6.50;99.90;;;;;;5070487;28;20479;-51
2022/12/27 13:09:30;;;;;;;6.10;4.87;;;6.60;99.90;;;;;;5070934;28;20904;-50
2022/12/27 13:12:02;;;;;;;1.93;1.73;;;6.70;99.90;;;;;;5070056;28;20503;-50
2022/12/27 13:14:46;;;;;;;2.30;2.07;;;6.50;99.90;;;;;;5074640;28;20440;-49
2022/12/27 13:17:18;;;;;;;4.70;2.13;;;6.60;99.90;;;;;;5079428;28;20727;-50
2022/12/27 13:19:55;;;;;;;1.50;1.20;;;6.70;99.90;;;;;;5069443;28;20532;-49
2022/12/27 13:22:36;;;;;;;1.80;1.60;;;6.80;99.90;;;;;;5069519;28;20500;-50
2022/12/27 13:25:18;;;;;;;1.83;1.50;;;6.80;99.90;;;;;;5069084;28;20445;-51
2022/12/27 13:27:53;;;;;;;1.90;1.57;;;6.90;99.90;;;;;;5069470;28;20527;-49
2022/12/27 13:30:24;;;;;;;2.00;1.50;;;6.80;99.90;;;;;;5069301;28;20867;-49
2022/12/27 13:33:05;;;;;;;5.13;1.97;;;6.70;99.90;;;;;;5069059;28;20469;-48
2022/12/27 13:35:46;;;;;;;2.07;1.50;;;6.70;99.90;;;;;;5070021;28;20929;-50
2022/12/27 13:38:27;;;;;;;1.70;1.60;;;6.70;99.90;;;;;;5070430;28;20491;-49
2022/12/27 13:41:38;;;;;;;3.30;2.07;;;6.60;99.90;;;;;;5069516;28;21007;-49
2022/12/27 13:44:38;;;;;;;2.03;1.67;;;6.60;99.90;;;;;;5024292;28;20685;-51
2022/12/27 13:47:34;;;;;;;3.43;2.10;;;6.60;99.90;;;;;;5037729;28;20552;-49
2022/12/27 13:50:40;;;;;;;3.60;1.97;;;6.50;99.90;;;;;;5056492;28;20498;-50
2022/12/27 13:53:35;;;;;;;2.00;1.80;;;6.40;99.90;;;;;;5037012;28;20483;-51
2022/12/27 13:56:11;;;;;;;2.63;1.80;;;6.50;99.90;;;;;;5069038;28;20940;-49
2022/12/27 13:59:01;;;;;;;2.30;2.10;;;6.40;99.90;;;;;;5070269;28;20468;-49
2022/12/27 14:02:12;;;;;;;2.13;1.80;;;6.30;99.90;;;;;;5068507;28;20559;-51
2022/12/27 14:05:11;;;;;;;2.33;2.13;;;6.40;99.90;;;;;;5069776;28;20475;-49
2022/12/27 14:07:52;;;;;;;2.90;2.43;;;6.30;99.90;;;;;;5069874;28;21011;-49
2022/12/27 14:10:36;;;;;;;2.90;2.60;;;6.40;99.90;;;;;;5068708;28;20543;-49
2022/12/27 14:13:06;;;;;;;4.83;2.23;;;6.40;99.90;;;;;;5068499;28;20448;-51
2022/12/27 14:16:02;;;;;;;2.50;2.30;;;6.30;99.90;;;;;;5076425;28;20476;-48
2022/12/27 14:19:07;;;;;;;3.10;2.70;;;6.30;99.90;;;;;;5055772;28;20442;-50
2022/12/27 14:21:59;;;;;;;2.30;2.10;;;6.30;99.90;;;;;;5052522;28;20929;-49
2022/12/27 14:24:55;;;;;;;2.07;1.70;;;6.30;99.90;;;;;;5068539;28;20562;-47
2022/12/27 14:27:52;;;;;;;1.70;1.53;;;6.30;99.90;;;;;;5068438;28;20572;-48
2022/12/27 14:30:34;;;;;;;2.30;1.60;;;6.30;99.90;;;;;;5065713;28;20503;-50
2022/12/27 14:33:37;;;;;;;2.67;1.80;;;6.30;99.90;;;;;;5067595;28;20947;-47
2022/12/27 14:36:31;;;;;;;3.50;1.90;;;6.10;99.90;;;;;;5067495;28;20984;-48
2022/12/27 14:39:38;;;;;;;2.47;2.20;;;6.10;99.90;;;;;;5067622;28;20476;-49
2022/12/27 14:42:34;;;;;;;7.23;5.43;;;6.20;99.90;;;;;;5081730;22;20584;-51
2022/12/27 14:45:33;;;;;;;4.87;4.20;;;6.10;99.90;;;;;;5046346;28;20537;-51
2022/12/27 14:48:34;;;;;;;3.07;2.67;;;6.00;99.90;;;;;;5049051;28;20496;-50
2022/12/27 14:51:36;;;;;;;4.50;2.50;;;5.80;99.90;;;;;;5049196;28;20548;-50
2022/12/27 14:54:45;;;;;;;2.50;2.30;;;5.60;99.90;;;;;;5049215;28;20532;-52
2022/12/27 14:57:25;;;;;;;5.80;3.37;;;5.50;99.90;;;;;;5048073;28;20862;-51
2022/12/27 14:59:59;;;;;;;4.83;4.07;;;5.50;99.90;;;;;;5048319;28;20527;-51
2022/12/27 15:02:40;;;;;;;4.27;2.83;;;5.60;99.90;;;;;;5047978;28;20500;-51
2022/12/27 15:05:19;;;;;;;3.53;2.30;;;5.70;99.90;;;;;;5047269;28;20517;-50
2022/12/27 15:08:07;;;;;;;2.60;2.40;;;5.60;99.90;;;;;;5047503;28;21070;-51
2022/12/27 15:11:07;;;;;;;3.67;2.70;;;5.60;99.90;;;;;;5047242;28;20543;-52
2022/12/27 15:13:51;;;;;;;5.40;2.50;;;5.60;99.90;;;;;;5042847;28;21099;-50
2022/12/27 15:16:29;;;;;;;2.87;2.60;;;5.60;99.90;;;;;;5058628;28;20518;-51